sensor_id;sensor_type;location;lat;lon;timestamp;P1;durP1;ratioP1;P2;durP2;ratioP2
42586;SDS011;28216;53.362;-6.288;2023-01-06T00:01:26;17.75;;;2.72;;
42586;SDS011;28216;53.362;-6.288;2023-01-06T00:03:53;13.95;;;2.67;;
42586;SDS011;28216;53.362;-6.288;2023-01-06T00:06:20;16.67;;;2.83;;
42586;SDS011;28216;53.362;-6.288;2023-01-06T00:08:52;13.63;;;2.22;;
42586;SDS011;28216;53.362;-6.288;2023-01-06T00:11:19;12.35;;;2.63;;
42586;SDS011;28216;53.362;-6.288;2023-01-06T00:13:44;14.32;;;2.53;;
42586;SDS011;28216;53.362;-6.288;2023-01-06T00:16:14;16.35;;;2.58;;
42586;SDS011;28216;53.362;-6.288;2023-01-06T00:18:42;14.48;;;2.63;;
42586;SDS011;28216;53.362;-6.288;2023-01-06T00:21:08;15.90;;;2.40;;
42586;SDS011;28216;53.362;-6.288;2023-01-06T00:23:35;19.20;;;3.00;;
42586;SDS011;28216;53.362;-6.288;2023-01-06T00:26:01;14.15;;;2.83;;
42586;SDS011;28216;53.362;-6.288;2023-01-06T00:28:28;19.65;;;2.80;;
42586;SDS011;28216;53.362;-6.288;2023-01-06T00:30:53;9.75;;;2.08;;
42586;SDS011;28216;53.362;-6.288;2023-01-06T00:33:19;13.45;;;2.83;;
42586;SDS011;28216;53.362;-6.288;2023-01-06T00:35:44;16.95;;;2.70;;
42586;SDS011;28216;53.362;-6.288;2023-01-06T00:38:10;13.52;;;2.67;;
42586;SDS011;28216;53.362;-6.288;2023-01-06T00:40:36;15.05;;;2.90;;
42586;SDS011;28216;53.362;-6.288;2023-01-06T00:43:01;12.60;;;2.63;;
42586;SDS011;28216;53.362;-6.288;2023-01-06T00:45:27;13.15;;;2.85;;
42586;SDS011;28216;53.362;-6.288;2023-01-06T00:47:53;14.95;;;2.88;;
42586;SDS011;28216;53.362;-6.288;2023-01-06T00:50:19;14.32;;;3.10;;
42586;SDS011;28216;53.362;-6.288;2023-01-06T00:52:46;13.43;;;2.42;;
42586;SDS011;28216;53.362;-6.288;2023-01-06T00:55:12;15.07;;;3.00;;
42586;SDS011;28216;53.362;-6.288;2023-01-06T00:57:38;21.67;;;3.13;;
42586;SDS011;28216;53.362;-6.288;2023-01-06T01:00:04;13.02;;;2.65;;
42586;SDS011;28216;53.362;-6.288;2023-01-06T01:02:31;13.13;;;3.40;;
42586;SDS011;28216;53.362;-6.288;2023-01-06T01:04:56;14.85;;;2.78;;
42586;SDS011;28216;53.362;-6.288;2023-01-06T01:07:22;14.57;;;2.70;;
42586;SDS011;28216;53.362;-6.288;2023-01-06T01:09:47;16.92;;;2.78;;
42586;SDS011;28216;53.362;-6.288;2023-01-06T01:12:13;17.30;;;2.47;;
42586;SDS011;28216;53.362;-6.288;2023-01-06T01:14:42;17.95;;;2.85;;
42586;SDS011;28216;53.362;-6.288;2023-01-06T01:17:18;19.75;;;2.58;;
42586;SDS011;28216;53.362;-6.288;2023-01-06T01:19:44;16.52;;;2.88;;
42586;SDS011;28216;53.362;-6.288;2023-01-06T01:22:13;17.75;;;2.70;;
42586;SDS011;28216;53.362;-6.288;2023-01-06T01:24:38;15.98;;;2.40;;
42586;SDS011;28216;53.362;-6.288;2023-01-06T01:27:04;17.55;;;3.35;;
42586;SDS011;28216;53.362;-6.288;2023-01-06T01:29:30;20.98;;;3.05;;
42586;SDS011;28216;53.362;-6.288;2023-01-06T01:31:55;18.42;;;3.00;;
42586;SDS011;28216;53.362;-6.288;2023-01-06T01:34:21;15.50;;;3.58;;
42586;SDS011;28216;53.362;-6.288;2023-01-06T01:36:47;12.98;;;2.58;;
42586;SDS011;28216;53.362;-6.288;2023-01-06T01:39:14;10.93;;;2.50;;
42586;SDS011;28216;53.362;-6.288;2023-01-06T01:41:41;18.55;;;2.95;;
42586;SDS011;28216;53.362;-6.288;2023-01-06T01:47:11;15.73;;;2.33;;
42586;SDS011;28216;53.362;-6.288;2023-01-06T01:49:40;14.45;;;3.20;;
42586;SDS011;28216;53.362;-6.288;2023-01-06T01:52:08;22.08;;;3.05;;
42586;SDS011;28216;53.362;-6.288;2023-01-06T01:54:35;19.33;;;2.70;;
42586;SDS011;28216;53.362;-6.288;2023-01-06T01:57:04;13.50;;;2.67;;
42586;SDS011;28216;53.362;-6.288;2023-01-06T01:59:37;16.77;;;2.92;;
42586;SDS011;28216;53.362;-6.288;2023-01-06T02:02:04;20.77;;;2.50;;
42586;SDS011;28216;53.362;-6.288;2023-01-06T02:04:31;15.70;;;2.97;;
42586;SDS011;28216;53.362;-6.288;2023-01-06T02:06:59;15.77;;;2.40;;
42586;SDS011;28216;53.362;-6.288;2023-01-06T02:09:31;16.80;;;2.53;;
42586;SDS011;28216;53.362;-6.288;2023-01-06T02:12:00;15.43;;;2.30;;
42586;SDS011;28216;53.362;-6.288;2023-01-06T02:14:26;17.38;;;2.88;;
42586;SDS011;28216;53.362;-6.288;2023-01-06T02:19:52;13.32;;;2.15;;
42586;SDS011;28216;53.362;-6.288;2023-01-06T02:37:13;12.93;;;2.50;;
42586;SDS011;28216;53.362;-6.288;2023-01-06T02:51:17;16.92;;;2.58;;
42586;SDS011;28216;53.362;-6.288;2023-01-06T02:56:23;15.65;;;2.45;;
42586;SDS011;28216;53.362;-6.288;2023-01-06T02:58:57;15.82;;;2.72;;
42586;SDS011;28216;53.362;-6.288;2023-01-06T03:01:38;16.20;;;2.22;;
42586;SDS011;28216;53.362;-6.288;2023-01-06T03:04:08;14.60;;;2.30;;
42586;SDS011;28216;53.362;-6.288;2023-01-06T03:06:39;15.85;;;2.60;;
42586;SDS011;28216;53.362;-6.288;2023-01-06T03:09:09;23.48;;;3.15;;
42586;SDS011;28216;53.362;-6.288;2023-01-06T03:11:40;11.25;;;2.30;;
42586;SDS011;28216;53.362;-6.288;2023-01-06T03:14:17;13.95;;;2.30;;
42586;SDS011;28216;53.362;-6.288;2023-01-06T03:16:51;14.80;;;2.50;;
42586;SDS011;28216;53.362;-6.288;2023-01-06T03:19:18;16.17;;;2.42;;
42586;SDS011;28216;53.362;-6.288;2023-01-06T03:21:43;17.80;;;2.53;;
42586;SDS011;28216;53.362;-6.288;2023-01-06T03:24:12;15.35;;;2.25;;
42586;SDS011;28216;53.362;-6.288;2023-01-06T03:26:37;14.00;;;2.35;;
42586;SDS011;28216;53.362;-6.288;2023-01-06T03:29:05;16.95;;;3.30;;
42586;SDS011;28216;53.362;-6.288;2023-01-06T03:34:19;10.60;;;2.28;;
42586;SDS011;28216;53.362;-6.288;2023-01-06T03:39:44;13.80;;;3.35;;
42586;SDS011;28216;53.362;-6.288;2023-01-06T03:53:44;14.57;;;2.63;;
42586;SDS011;28216;53.362;-6.288;2023-01-06T03:56:36;15.82;;;2.40;;
42586;SDS011;28216;53.362;-6.288;2023-01-06T03:59:08;19.92;;;2.33;;
42586;SDS011;28216;53.362;-6.288;2023-01-06T04:01:39;9.82;;;2.10;;
42586;SDS011;28216;53.362;-6.288;2023-01-06T04:04:07;14.10;;;2.67;;
42586;SDS011;28216;53.362;-6.288;2023-01-06T04:06:33;15.35;;;2.30;;
42586;SDS011;28216;53.362;-6.288;2023-01-06T04:08:59;13.57;;;2.17;;
42586;SDS011;28216;53.362;-6.288;2023-01-06T04:11:24;13.55;;;2.38;;
42586;SDS011;28216;53.362;-6.288;2023-01-06T04:14:08;10.10;;;2.03;;
42586;SDS011;28216;53.362;-6.288;2023-01-06T04:16:33;15.25;;;2.45;;
42586;SDS011;28216;53.362;-6.288;2023-01-06T04:18:59;11.48;;;2.40;;
42586;SDS011;28216;53.362;-6.288;2023-01-06T04:21:24;10.23;;;2.13;;
42586;SDS011;28216;53.362;-6.288;2023-01-06T04:23:50;13.73;;;2.33;;
42586;SDS011;28216;53.362;-6.288;2023-01-06T04:26:15;9.48;;;2.33;;
42586;SDS011;28216;53.362;-6.288;2023-01-06T04:28:41;11.68;;;1.90;;
42586;SDS011;28216;53.362;-6.288;2023-01-06T04:31:06;11.55;;;2.13;;
42586;SDS011;28216;53.362;-6.288;2023-01-06T04:33:34;15.55;;;2.53;;
42586;SDS011;28216;53.362;-6.288;2023-01-06T04:35:59;12.65;;;2.00;;
42586;SDS011;28216;53.362;-6.288;2023-01-06T04:38:25;12.23;;;1.98;;
42586;SDS011;28216;53.362;-6.288;2023-01-06T04:40:51;14.93;;;1.90;;
42586;SDS011;28216;53.362;-6.288;2023-01-06T04:43:16;18.05;;;2.20;;
42586;SDS011;28216;53.362;-6.288;2023-01-06T04:45:42;14.38;;;1.98;;
42586;SDS011;28216;53.362;-6.288;2023-01-06T04:48:08;11.80;;;2.13;;
42586;SDS011;28216;53.362;-6.288;2023-01-06T04:50:34;13.50;;;2.35;;
42586;SDS011;28216;53.362;-6.288;2023-01-06T04:53:00;10.93;;;2.17;;
42586;SDS011;28216;53.362;-6.288;2023-01-06T04:55:25;12.88;;;2.10;;
42586;SDS011;28216;53.362;-6.288;2023-01-06T04:57:51;11.70;;;2.00;;
42586;SDS011;28216;53.362;-6.288;2023-01-06T05:00:17;9.90;;;1.90;;
42586;SDS011;28216;53.362;-6.288;2023-01-06T05:02:42;11.07;;;1.92;;
42586;SDS011;28216;53.362;-6.288;2023-01-06T05:05:08;18.75;;;2.15;;
42586;SDS011;28216;53.362;-6.288;2023-01-06T05:07:34;8.80;;;2.10;;
42586;SDS011;28216;53.362;-6.288;2023-01-06T05:09:59;12.25;;;1.88;;
42586;SDS011;28216;53.362;-6.288;2023-01-06T05:12:25;11.18;;;2.00;;
42586;SDS011;28216;53.362;-6.288;2023-01-06T05:14:50;8.85;;;1.80;;
42586;SDS011;28216;53.362;-6.288;2023-01-06T05:17:19;9.20;;;2.05;;
42586;SDS011;28216;53.362;-6.288;2023-01-06T05:19:44;8.82;;;2.10;;
42586;SDS011;28216;53.362;-6.288;2023-01-06T05:22:10;10.52;;;2.03;;
42586;SDS011;28216;53.362;-6.288;2023-01-06T05:24:36;13.40;;;1.95;;
42586;SDS011;28216;53.362;-6.288;2023-01-06T05:27:02;11.60;;;1.80;;
42586;SDS011;28216;53.362;-6.288;2023-01-06T05:29:27;10.82;;;1.77;;
42586;SDS011;28216;53.362;-6.288;2023-01-06T05:31:53;10.13;;;1.75;;
42586;SDS011;28216;53.362;-6.288;2023-01-06T05:34:18;11.05;;;2.00;;
42586;SDS011;28216;53.362;-6.288;2023-01-06T05:36:43;8.23;;;2.00;;
42586;SDS011;28216;53.362;-6.288;2023-01-06T05:39:09;11.50;;;1.70;;
42586;SDS011;28216;53.362;-6.288;2023-01-06T05:41:34;9.75;;;1.80;;
42586;SDS011;28216;53.362;-6.288;2023-01-06T05:44:00;12.27;;;2.05;;
42586;SDS011;28216;53.362;-6.288;2023-01-06T05:46:25;12.60;;;1.83;;
42586;SDS011;28216;53.362;-6.288;2023-01-06T05:48:51;12.82;;;2.00;;
42586;SDS011;28216;53.362;-6.288;2023-01-06T05:51:16;11.05;;;1.75;;
42586;SDS011;28216;53.362;-6.288;2023-01-06T05:53:43;7.57;;;1.80;;
42586;SDS011;28216;53.362;-6.288;2023-01-06T05:56:11;11.15;;;1.63;;
42586;SDS011;28216;53.362;-6.288;2023-01-06T05:58:38;14.25;;;2.13;;
42586;SDS011;28216;53.362;-6.288;2023-01-06T06:01:05;8.20;;;1.75;;
42586;SDS011;28216;53.362;-6.288;2023-01-06T06:03:38;10.02;;;1.70;;
42586;SDS011;28216;53.362;-6.288;2023-01-06T06:06:04;9.55;;;2.00;;
42586;SDS011;28216;53.362;-6.288;2023-01-06T06:08:30;8.30;;;1.50;;
42586;SDS011;28216;53.362;-6.288;2023-01-06T06:11:00;6.60;;;1.20;;
42586;SDS011;28216;53.362;-6.288;2023-01-06T06:13:30;13.77;;;2.10;;
42586;SDS011;28216;53.362;-6.288;2023-01-06T06:16:08;10.05;;;1.73;;
42586;SDS011;28216;53.362;-6.288;2023-01-06T06:18:36;11.32;;;1.70;;
42586;SDS011;28216;53.362;-6.288;2023-01-06T06:21:06;10.25;;;1.52;;
42586;SDS011;28216;53.362;-6.288;2023-01-06T06:23:33;9.65;;;1.40;;
42586;SDS011;28216;53.362;-6.288;2023-01-06T06:25:59;8.07;;;1.38;;
42586;SDS011;28216;53.362;-6.288;2023-01-06T06:28:24;7.00;;;1.30;;
42586;SDS011;28216;53.362;-6.288;2023-01-06T06:30:50;9.75;;;1.73;;
42586;SDS011;28216;53.362;-6.288;2023-01-06T06:33:15;9.05;;;1.75;;
42586;SDS011;28216;53.362;-6.288;2023-01-06T06:35:41;7.95;;;1.95;;
42586;SDS011;28216;53.362;-6.288;2023-01-06T06:38:06;8.68;;;1.60;;
42586;SDS011;28216;53.362;-6.288;2023-01-06T06:40:32;10.65;;;2.10;;
42586;SDS011;28216;53.362;-6.288;2023-01-06T06:42:57;8.75;;;1.70;;
42586;SDS011;28216;53.362;-6.288;2023-01-06T06:45:23;10.30;;;1.75;;
42586;SDS011;28216;53.362;-6.288;2023-01-06T06:47:52;8.48;;;1.85;;
42586;SDS011;28216;53.362;-6.288;2023-01-06T06:50:18;7.40;;;1.58;;
42586;SDS011;28216;53.362;-6.288;2023-01-06T06:52:44;12.18;;;1.98;;
42586;SDS011;28216;53.362;-6.288;2023-01-06T06:55:09;12.32;;;1.95;;
42586;SDS011;28216;53.362;-6.288;2023-01-06T06:57:35;6.18;;;1.70;;
42586;SDS011;28216;53.362;-6.288;2023-01-06T07:00:00;10.15;;;1.85;;
42586;SDS011;28216;53.362;-6.288;2023-01-06T07:02:26;11.18;;;1.80;;
42586;SDS011;28216;53.362;-6.288;2023-01-06T07:04:51;10.55;;;1.90;;
42586;SDS011;28216;53.362;-6.288;2023-01-06T07:07:16;8.43;;;1.83;;
42586;SDS011;28216;53.362;-6.288;2023-01-06T07:09:42;9.75;;;1.80;;
42586;SDS011;28216;53.362;-6.288;2023-01-06T07:12:07;9.02;;;1.80;;
42586;SDS011;28216;53.362;-6.288;2023-01-06T07:14:33;11.65;;;1.77;;
42586;SDS011;28216;53.362;-6.288;2023-01-06T07:16:59;7.95;;;1.33;;
42586;SDS011;28216;53.362;-6.288;2023-01-06T07:19:26;9.65;;;1.80;;
42586;SDS011;28216;53.362;-6.288;2023-01-06T07:21:52;7.95;;;1.83;;
42586;SDS011;28216;53.362;-6.288;2023-01-06T07:24:18;6.53;;;1.60;;
42586;SDS011;28216;53.362;-6.288;2023-01-06T07:26:43;11.00;;;2.28;;
42586;SDS011;28216;53.362;-6.288;2023-01-06T07:29:08;6.50;;;1.60;;
42586;SDS011;28216;53.362;-6.288;2023-01-06T07:31:34;4.80;;;1.30;;
42586;SDS011;28216;53.362;-6.288;2023-01-06T07:33:59;8.85;;;1.85;;
42586;SDS011;28216;53.362;-6.288;2023-01-06T07:36:25;10.68;;;1.80;;
42586;SDS011;28216;53.362;-6.288;2023-01-06T07:38:50;7.18;;;1.58;;
42586;SDS011;28216;53.362;-6.288;2023-01-06T07:41:16;10.55;;;2.13;;
42586;SDS011;28216;53.362;-6.288;2023-01-06T07:43:41;4.90;;;1.73;;
42586;SDS011;28216;53.362;-6.288;2023-01-06T07:46:07;9.75;;;2.03;;
42586;SDS011;28216;53.362;-6.288;2023-01-06T07:48:35;7.28;;;2.08;;
42586;SDS011;28216;53.362;-6.288;2023-01-06T07:51:01;9.35;;;1.95;;
42586;SDS011;28216;53.362;-6.288;2023-01-06T07:53:27;8.15;;;1.98;;
42586;SDS011;28216;53.362;-6.288;2023-01-06T07:55:53;6.22;;;1.95;;
42586;SDS011;28216;53.362;-6.288;2023-01-06T07:58:19;6.60;;;1.90;;
42586;SDS011;28216;53.362;-6.288;2023-01-06T08:00:47;9.27;;;2.13;;
42586;SDS011;28216;53.362;-6.288;2023-01-06T08:03:13;8.00;;;2.10;;
42586;SDS011;28216;53.362;-6.288;2023-01-06T08:05:39;8.07;;;1.90;;
42586;SDS011;28216;53.362;-6.288;2023-01-06T08:08:08;6.25;;;2.05;;
42586;SDS011;28216;53.362;-6.288;2023-01-06T08:10:37;7.47;;;1.27;;
42586;SDS011;28216;53.362;-6.288;2023-01-06T08:13:04;6.80;;;1.50;;
42586;SDS011;28216;53.362;-6.288;2023-01-06T08:15:29;6.72;;;1.70;;
42586;SDS011;28216;53.362;-6.288;2023-01-06T08:17:54;5.70;;;1.63;;
42586;SDS011;28216;53.362;-6.288;2023-01-06T08:20:20;9.02;;;1.50;;
42586;SDS011;28216;53.362;-6.288;2023-01-06T08:22:47;7.40;;;1.52;;
42586;SDS011;28216;53.362;-6.288;2023-01-06T08:25:12;6.43;;;1.45;;
42586;SDS011;28216;53.362;-6.288;2023-01-06T08:27:38;5.03;;;1.20;;
42586;SDS011;28216;53.362;-6.288;2023-01-06T08:30:03;7.75;;;1.70;;
42586;SDS011;28216;53.362;-6.288;2023-01-06T08:32:29;4.70;;;1.63;;
42586;SDS011;28216;53.362;-6.288;2023-01-06T08:34:54;4.00;;;1.40;;
42586;SDS011;28216;53.362;-6.288;2023-01-06T08:37:20;6.00;;;1.42;;
42586;SDS011;28216;53.362;-6.288;2023-01-06T08:39:46;7.20;;;1.63;;
42586;SDS011;28216;53.362;-6.288;2023-01-06T08:42:11;4.53;;;1.75;;
42586;SDS011;28216;53.362;-6.288;2023-01-06T08:44:37;6.40;;;1.63;;
42586;SDS011;28216;53.362;-6.288;2023-01-06T08:47:02;8.50;;;2.00;;
42586;SDS011;28216;53.362;-6.288;2023-01-06T08:49:28;8.55;;;2.42;;
42586;SDS011;28216;53.362;-6.288;2023-01-06T08:51:54;5.30;;;2.50;;
42586;SDS011;28216;53.362;-6.288;2023-01-06T08:54:19;8.15;;;2.05;;
42586;SDS011;28216;53.362;-6.288;2023-01-06T08:56:44;10.43;;;2.72;;
42586;SDS011;28216;53.362;-6.288;2023-01-06T08:59:14;10.73;;;2.20;;
42586;SDS011;28216;53.362;-6.288;2023-01-06T09:01:41;34.28;;;12.30;;
42586;SDS011;28216;53.362;-6.288;2023-01-06T09:04:07;27.55;;;10.77;;
42586;SDS011;28216;53.362;-6.288;2023-01-06T09:06:34;17.63;;;5.82;;
42586;SDS011;28216;53.362;-6.288;2023-01-06T09:09:01;21.83;;;7.55;;
42586;SDS011;28216;53.362;-6.288;2023-01-06T09:11:28;31.52;;;11.95;;
42586;SDS011;28216;53.362;-6.288;2023-01-06T09:13:53;22.33;;;8.98;;
42586;SDS011;28216;53.362;-6.288;2023-01-06T09:16:19;21.27;;;10.73;;
42586;SDS011;28216;53.362;-6.288;2023-01-06T09:18:45;17.15;;;5.72;;
42586;SDS011;28216;53.362;-6.288;2023-01-06T09:21:18;9.95;;;4.38;;
42586;SDS011;28216;53.362;-6.288;2023-01-06T09:23:45;8.70;;;2.63;;
42586;SDS011;28216;53.362;-6.288;2023-01-06T09:26:11;8.63;;;3.00;;
42586;SDS011;28216;53.362;-6.288;2023-01-06T09:28:38;7.85;;;2.70;;
42586;SDS011;28216;53.362;-6.288;2023-01-06T09:31:05;8.05;;;2.58;;
42586;SDS011;28216;53.362;-6.288;2023-01-06T09:33:31;10.45;;;2.45;;
42586;SDS011;28216;53.362;-6.288;2023-01-06T09:35:57;8.38;;;2.38;;
42586;SDS011;28216;53.362;-6.288;2023-01-06T09:38:22;5.70;;;1.50;;
42586;SDS011;28216;53.362;-6.288;2023-01-06T09:43:49;11.02;;;1.77;;
42586;SDS011;28216;53.362;-6.288;2023-01-06T09:46:19;5.60;;;1.40;;
42586;SDS011;28216;53.362;-6.288;2023-01-06T09:49:24;10.18;;;1.77;;
42586;SDS011;28216;53.362;-6.288;2023-01-06T09:51:41;8.10;;;1.33;;
42586;SDS011;28216;53.362;-6.288;2023-01-06T09:56:42;7.63;;;1.40;;
42586;SDS011;28216;53.362;-6.288;2023-01-06T10:02:32;6.00;;;1.60;;
